Time;durP1;ratioP1;P1;durP2;ratioP2;P2;SDS_P1;SDS_P2;PMS_P1;PMS_P2;Temp;Humidity;BMP_temperature;BMP_pressure;BME280_temperature;BME280_humidity;BME280_pressure;Samples;Min_cycle;Max_cycle;Signal;HPM_P1;HPM_P2
2022/03/01 00:00:01;;;;;;;8.02;4.63;;;;;;;-1.69;63.26;101391.84;5063576;28;20222;-59
2022/03/01 00:02:29;;;;;;;11.05;4.72;;;;;;;-1.75;62.29;101392.38;5062932;28;20036;-59
2022/03/01 00:04:54;;;;;;;9.63;4.78;;;;;;;-1.74;62.29;101383.09;5063357;28;20045;-58
2022/03/01 00:07:20;;;;;;;7.80;4.63;;;;;;;-1.73;63.52;101392.47;5063344;28;20025;-59
2022/03/01 00:09:45;;;;;;;5.50;3.70;;;;;;;-1.72;61.96;101373.91;5063239;28;20016;-58
2022/03/01 00:12:11;;;;;;;7.85;4.50;;;;;;;-1.71;62.37;101370.59;5063100;28;20051;-59
2022/03/01 00:14:36;;;;;;;6.10;4.30;;;;;;;-1.76;61.79;101367.78;5060820;28;20352;-59
2022/03/01 00:17:02;;;;;;;7.40;4.35;;;;;;;-1.69;62.49;101381.69;5063315;28;20037;-58
2022/03/01 00:19:29;;;;;;;7.78;4.53;;;;;;;-1.76;61.50;101365.22;5062890;28;20317;-58
2022/03/01 00:21:57;;;;;;;6.20;4.45;;;;;;;-1.68;61.84;101370.75;5063594;28;20029;-59
2022/03/01 00:24:23;;;;;;;9.90;4.35;;;;;;;-1.69;61.79;101369.00;5062255;28;20033;-59
2022/03/01 00:26:48;;;;;;;8.55;4.43;;;;;;;-1.77;61.74;101353.34;5063097;28;20032;-59
2022/03/01 00:29:14;;;;;;;8.55;4.40;;;;;;;-1.66;62.13;101373.38;5062693;28;20029;-59
2022/03/01 00:31:40;;;;;;;7.45;4.60;;;;;;;-1.69;62.60;101373.22;5061925;28;20154;-59
2022/03/01 00:34:05;;;;;;;6.45;4.10;;;;;;;-1.76;60.71;101372.00;5063119;28;20102;-59
2022/03/01 00:36:31;;;;;;;6.88;4.10;;;;;;;-1.79;61.51;101369.28;5062919;28;20021;-59
2022/03/01 00:38:57;;;;;;;6.47;4.05;;;;;;;-1.73;61.45;101362.00;5061911;28;20037;-58
2022/03/01 00:41:22;;;;;;;5.55;3.72;;;;;;;-1.76;62.31;101364.38;5060924;28;20043;-59
2022/03/01 00:44:03;;;;;;;6.93;4.43;;;;;;;-1.81;62.46;101359.03;5062446;28;20255;-58
2022/03/01 00:46:29;;;;;;;6.85;3.95;;;;;;;-1.81;62.05;101364.13;5051215;28;20025;-59
2022/03/01 00:48:56;;;;;;;7.97;3.95;;;;;;;-1.82;61.66;101362.38;5062368;28;20017;-59
2022/03/01 00:51:21;;;;;;;9.27;4.63;;;;;;;-1.83;60.68;101365.69;5044271;28;20056;-59
2022/03/01 00:53:47;;;;;;;8.23;4.28;;;;;;;-1.82;61.48;101362.38;5061313;28;20067;-59
2022/03/01 00:56:13;;;;;;;9.13;4.82;;;;;;;-1.96;61.88;101345.50;5061579;28;20096;-59
2022/03/01 00:58:38;;;;;;;7.60;5.00;;;;;;;-1.85;63.40;101356.22;5062101;28;20149;-59
2022/03/01 01:01:04;;;;;;;7.70;3.97;;;;;;;-1.82;60.09;101353.88;5062381;28;20325;-58
2022/03/01 01:03:29;;;;;;;9.52;5.18;;;;;;;-1.85;63.17;101356.22;5062396;28;20036;-60
2022/03/01 01:05:55;;;;;;;8.07;4.78;;;;;;;-1.86;61.58;101354.50;5061347;28;20087;-60
2022/03/01 01:08:21;;;;;;;7.07;4.68;;;;;;;-1.86;62.13;101362.97;5061564;28;20040;-59
2022/03/01 01:10:47;;;;;;;30.98;5.82;;;;;;;-1.83;61.77;101359.75;5060437;28;20048;-59
2022/03/01 01:13:14;;;;;;;29.50;6.32;;;;;;;-1.87;62.96;101363.75;5061859;28;20044;-59
2022/03/01 01:15:40;;;;;;;9.93;4.90;;;;;;;-1.93;60.95;101360.88;5061409;28;20325;-59
2022/03/01 01:18:06;;;;;;;11.15;4.35;;;;;;;-1.94;62.77;101362.56;5061472;28;20052;-58
2022/03/01 01:20:32;;;;;;;20.60;6.30;;;;;;;-1.99;63.13;101352.94;5060464;28;20033;-59
2022/03/01 01:22:57;;;;;;;17.42;5.43;;;;;;;-2.01;64.22;101357.03;5061703;28;20075;-58
2022/03/01 01:25:24;;;;;;;14.40;5.20;;;;;;;-2.00;62.32;101362.19;5061474;28;20068;-58
2022/03/01 01:27:56;;;;;;;8.00;4.68;;;;;;;-2.10;61.89;101343.03;5060913;28;20021;-59
2022/03/01 01:30:23;;;;;;;;;;;;;;;-2.04;61.80;101352.66;5062048;28;20105;-58
2022/03/01 01:32:49;;;;;;;11.05;4.70;;;;;;;-2.04;62.56;101355.19;5060253;28;19927;-59
2022/03/01 01:35:18;;;;;;;15.80;5.90;;;;;;;-2.20;62.72;101339.91;5060034;28;20074;-60
2022/03/01 01:37:43;;;;;;;10.88;4.95;;;;;;;-2.14;64.08;101350.38;5060147;28;20055;-59
2022/03/01 01:40:12;;;;;;;14.05;5.10;;;;;;;-2.18;63.89;101339.19;5061213;28;20037;-59
2022/03/01 01:42:38;;;;;;;9.02;4.60;;;;;;;-2.18;63.05;101345.91;5060999;28;20028;-59
2022/03/01 01:45:05;;;;;;;9.35;5.18;;;;;;;-2.17;64.09;101352.75;5061036;28;20147;-60
2022/03/01 01:47:31;;;;;;;10.30;5.10;;;;;;;-2.16;64.75;101350.28;5060072;28;20104;-59
2022/03/01 01:49:57;;;;;;;9.90;5.85;;;;;;;-2.13;63.52;101355.53;5058797;28;20045;-58
2022/03/01 01:52:25;;;;;;;10.85;6.22;;;;;;;-2.59;64.97;101299.63;5060442;28;20429;-59
2022/03/01 01:54:50;;;;;;;9.88;5.97;;;;;;;-2.24;65.27;101345.56;5059562;28;20368;-59
2022/03/01 01:57:19;;;;;;;9.27;6.00;;;;;;;-2.25;64.13;101354.88;5059386;28;20092;-60
2022/03/01 01:59:46;;;;;;;13.60;6.85;;;;;;;-2.21;64.31;101353.34;5060388;28;20024;-59
2022/03/01 02:02:21;;;;;;;15.85;6.20;;;;;;;-2.36;65.20;101325.47;5060195;28;20021;-60
2022/03/01 02:04:47;;;;;;;23.42;7.38;;;;;;;-2.26;65.24;101346.34;5015218;28;1325284;-59
2022/03/01 02:07:13;;;;;;;13.25;6.93;;;;;;;-2.27;65.88;101347.16;5062305;28;20232;-57
2022/03/01 02:09:39;;;;;;;14.60;6.53;;;;;;;-2.29;65.35;101353.78;5062362;28;20221;-59
2022/03/01 02:12:05;;;;;;;12.20;6.43;;;;;;;-2.27;65.04;101352.25;5062672;28;20218;-59
2022/03/01 02:14:33;;;;;;;20.13;7.55;;;;;;;-2.31;65.91;101350.31;5061380;28;20097;-59
2022/03/01 02:17:00;;;;;;;14.10;6.80;;;;;;;-2.66;65.44;101289.94;5062077;28;20028;-61
2022/03/01 02:19:26;;;;;;;15.45;8.13;;;;;;;-2.27;65.30;101358.97;5062411;28;20104;-62
2022/03/01 02:21:57;;;;;;;18.23;8.85;;;;;;;-2.25;64.43;101359.94;5062457;28;20088;-62
2022/03/01 02:24:27;;;;;;;19.85;10.07;;;;;;;-2.31;65.56;101355.38;5062591;28;20029;-61
2022/03/01 02:26:57;;;;;;;18.85;9.70;;;;;;;-2.45;64.32;101344.44;5062457;28;20021;-61
2022/03/01 02:29:24;;;;;;;19.10;9.95;;;;;;;-2.41;64.37;101350.53;5062237;28;20025;-60
2022/03/01 02:31:51;;;;;;;18.25;9.48;;;;;;;-2.38;64.29;101362.53;5066539;28;20036;-61
2022/03/01 02:34:18;;;;;;;19.50;11.35;;;;;;;-2.57;64.58;101338.63;5062257;28;20033;-63
2022/03/01 02:36:44;;;;;;;20.17;9.43;;;;;;;-2.46;65.47;101357.88;5062201;28;20100;-61
2022/03/01 02:39:09;;;;;;;15.43;9.02;;;;;;;-2.49;65.00;101355.19;5061870;28;20029;-58
2022/03/01 02:41:40;;;;;;;19.55;9.05;;;;;;;-2.48;66.97;101356.94;5060892;28;20051;-59
2022/03/01 02:44:05;;;;;;;15.40;8.30;;;;;;;-2.51;66.18;101360.94;5060917;28;20025;-58
2022/03/01 02:46:31;;;;;;;16.95;8.25;;;;;;;-2.54;66.57;101356.56;5061782;28;20031;-59
2022/03/01 02:48:57;;;;;;;17.05;9.02;;;;;;;-2.62;65.73;101358.66;5060305;28;20032;-59
2022/03/01 02:51:22;;;;;;;14.88;8.13;;;;;;;-2.68;66.38;101353.22;5061297;28;20097;-57
2022/03/01 02:53:48;;;;;;;18.55;9.77;;;;;;;-2.67;65.73;101349.88;5061620;28;20025;-58
2022/03/01 02:56:13;;;;;;;16.02;8.40;;;;;;;-2.69;65.43;101353.16;5061488;28;20432;-57
2022/03/01 02:58:39;;;;;;;19.52;10.13;;;;;;;-2.67;67.02;101352.41;5060014;28;20028;-58
2022/03/01 03:01:05;;;;;;;22.42;9.20;;;;;;;-2.71;66.70;101347.09;5062746;28;20029;-59
2022/03/01 03:03:30;;;;;;;16.77;8.32;;;;;;;-2.72;66.26;101350.41;5063785;28;20044;-58
2022/03/01 03:05:56;;;;;;;20.40;8.98;;;;;;;-2.75;66.13;101355.28;5064586;28;20155;-58
2022/03/01 03:08:21;;;;;;;16.10;8.38;;;;;;;-2.82;66.90;101347.34;5061230;28;20035;-58
2022/03/01 03:10:47;;;;;;;15.05;8.15;;;;;;;-2.88;65.26;101348.63;5064614;28;20029;-58
2022/03/01 03:13:13;;;;;;;19.92;7.90;;;;;;;-2.86;66.18;101352.13;5063497;28;20032;-59
2022/03/01 03:15:38;;;;;;;23.23;9.32;;;;;;;-2.85;65.88;101349.69;5063587;28;20020;-59
2022/03/01 03:18:04;;;;;;;16.30;7.63;;;;;;;-2.89;66.71;101349.38;5064530;28;20091;-60
2022/03/01 03:20:30;;;;;;;18.60;8.07;;;;;;;-2.91;67.28;101339.16;5064772;28;20021;-59
2022/03/01 03:22:55;;;;;;;17.33;8.07;;;;;;;-2.91;66.87;101348.44;5064773;28;20041;-58
2022/03/01 03:25:21;;;;;;;24.13;8.00;;;;;;;-2.92;66.96;101334.91;5064729;28;20032;-58
2022/03/01 03:27:46;;;;;;;13.70;7.40;;;;;;;-2.93;67.85;101328.06;5064163;28;20108;-59
2022/03/01 03:30:12;;;;;;;23.00;8.73;;;;;;;-2.92;68.04;101334.00;5064569;28;20058;-59
2022/03/01 03:32:38;;;;;;;15.25;8.07;;;;;;;-2.90;68.09;101335.00;5064108;28;20025;-58
2022/03/01 03:35:05;;;;;;;15.63;7.57;;;;;;;-2.93;67.49;101330.59;5064599;28;20028;-59
2022/03/01 03:37:31;;;;;;;19.42;8.90;;;;;;;-2.99;67.36;101326.03;5064275;28;20028;-59
2022/03/01 03:39:57;;;;;;;16.50;7.43;;;;;;;-2.93;66.84;101339.88;5063920;28;20235;-59
2022/03/01 03:42:23;;;;;;;17.73;7.88;;;;;;;-2.93;67.66;101337.34;5063041;28;20028;-58
2022/03/01 03:44:49;;;;;;;16.85;7.95;;;;;;;-2.95;67.66;101338.13;5064338;28;20060;-59
2022/03/01 03:47:14;;;;;;;20.42;8.05;;;;;;;-3.00;67.57;101342.03;5064071;28;20035;-58
2022/03/01 03:49:40;;;;;;;13.60;7.80;;;;;;;-3.05;67.29;101340.88;5064346;28;20016;-59
2022/03/01 03:52:06;;;;;;;12.68;6.78;;;;;;;-3.02;67.76;101336.00;5063869;28;20092;-59
2022/03/01 03:54:33;;;;;;;17.67;8.18;;;;;;;-2.98;67.15;101343.00;5064205;28;20055;-59
2022/03/01 03:56:59;;;;;;;15.05;7.30;;;;;;;-2.97;68.26;101337.13;5064067;28;20024;-59
2022/03/01 03:59:25;;;;;;;22.75;7.65;;;;;;;-3.03;67.13;101339.31;5063643;28;20049;-59
2022/03/01 04:01:51;;;;;;;18.40;7.68;;;;;;;-3.02;68.95;101341.06;5063562;28;20065;-59
2022/03/01 04:04:17;;;;;;;14.15;7.32;;;;;;;-3.05;69.31;101338.34;5062277;28;20312;-59
2022/03/01 04:06:43;;;;;;;22.00;8.40;;;;;;;-3.06;67.41;101339.13;5063541;28;20016;-59
2022/03/01 04:09:08;;;;;;;15.27;7.78;;;;;;;-3.04;68.33;101344.28;5055294;28;20044;-60
2022/03/01 04:11:34;;;;;;;20.83;7.85;;;;;;;-3.06;69.13;101344.19;5062967;28;20035;-61
2022/03/01 04:14:00;;;;;;;27.35;8.25;;;;;;;-3.03;68.75;101343.50;5063780;28;20017;-61
2022/03/01 04:16:27;;;;;;;20.83;8.05;;;;;;;-3.10;68.57;101334.66;5063861;28;20033;-62
2022/03/01 04:18:54;;;;;;;18.13;8.13;;;;;;;-3.09;67.76;101343.13;5064082;28;20124;-60
2022/03/01 04:21:19;;;;;;;18.45;7.88;;;;;;;-3.07;68.71;101344.97;5062835;28;20040;-61
2022/03/01 04:23:45;;;;;;;19.30;7.85;;;;;;;-3.06;67.55;101343.34;5063822;28;20214;-61
2022/03/01 04:26:11;;;;;;;19.58;8.55;;;;;;;-3.08;67.22;101347.41;5064017;28;20033;-61
2022/03/01 04:28:36;;;;;;;24.15;8.85;;;;;;;-3.08;68.76;101342.34;5063731;28;20036;-61
2022/03/01 04:31:02;;;;;;;23.88;9.20;;;;;;;-3.15;68.37;101336.91;5063373;28;20054;-62
2022/03/01 04:33:28;;;;;;;24.40;8.70;;;;;;;-3.07;68.60;101344.97;5063950;28;20036;-62
2022/03/01 04:35:54;;;;;;;18.02;8.55;;;;;;;-3.13;68.24;101342.06;5063564;28;20063;-63
2022/03/01 04:38:20;;;;;;;29.77;9.75;;;;;;;-3.06;68.97;101335.72;5062538;28;20021;-62
2022/03/01 04:40:46;;;;;;;33.92;9.57;;;;;;;-3.08;69.27;101333.06;5063186;28;20314;-61
2022/03/01 04:43:12;;;;;;;31.52;9.55;;;;;;;-3.08;68.58;101340.69;5063021;28;20048;-61
2022/03/01 04:45:38;;;;;;;18.52;8.40;;;;;;;-3.04;68.85;101350.22;5062663;28;20261;-61
2022/03/01 04:48:04;;;;;;;20.67;8.45;;;;;;;-3.03;68.49;101344.38;5063066;28;20033;-61
2022/03/01 04:50:29;;;;;;;20.08;8.57;;;;;;;-2.99;68.48;101353.06;5057452;28;20032;-60
2022/03/01 04:52:55;;;;;;;18.30;7.85;;;;;;;-3.01;69.27;101345.34;5062667;28;20024;-61
2022/03/01 04:55:20;;;;;;;23.88;8.25;;;;;;;-3.06;68.76;101330.66;5062096;28;20025;-61
2022/03/01 04:57:46;;;;;;;19.73;9.02;;;;;;;-2.96;68.91;101343.09;5062562;28;20021;-60
2022/03/01 05:00:12;;;;;;;26.63;9.95;;;;;;;-2.91;69.49;101343.38;5062358;28;20039;-60
2022/03/01 05:02:48;;;;;;;25.55;9.52;;;;;;;-2.91;68.14;101349.31;5061580;28;20035;-61
2022/03/01 05:05:15;;;;;;;22.20;9.27;;;;;;;-3.32;68.84;101269.13;5061546;28;20048;-61
2022/03/01 05:07:42;;;;;;;23.73;9.40;;;;;;;-2.83;68.83;101357.38;5061838;28;20043;-61
2022/03/01 05:10:09;;;;;;;29.60;9.63;;;;;;;-2.78;68.90;101350.91;5060713;28;20016;-60
2022/03/01 05:12:41;;;;;;;26.77;9.48;;;;;;;-2.86;69.10;101331.84;5061207;28;20021;-61
2022/03/01 05:15:07;;;;;;;31.63;10.93;;;;;;;-2.70;68.39;101354.78;5062226;28;20070;-61
2022/03/01 05:17:34;;;;;;;26.63;10.25;;;;;;;-2.70;67.93;101346.31;5062416;28;20037;-60
2022/03/01 05:20:01;;;;;;;29.92;11.05;;;;;;;-2.61;68.76;101355.34;5062249;28;20025;-62
2022/03/01 05:22:26;;;;;;;25.30;11.02;;;;;;;-2.57;68.71;101351.31;5062126;28;20040;-61
2022/03/01 05:24:52;;;;;;;21.55;9.48;;;;;;;-2.51;68.69;101351.69;5061288;28;20021;-61
2022/03/01 05:27:18;;;;;;;28.08;10.48;;;;;;;-2.51;67.73;101346.63;5060231;28;20036;-61
2022/03/01 05:29:43;;;;;;;31.85;10.27;;;;;;;-2.41;66.15;101345.47;5061068;28;20016;-62
2022/03/01 05:32:08;;;;;;;27.15;12.43;;;;;;;-2.30;65.01;101344.41;5060251;28;20033;-61
2022/03/01 05:34:34;;;;;;;24.88;10.13;;;;;;;-2.19;65.42;101359.41;5060296;28;20025;-61
2022/03/01 05:36:59;;;;;;;26.13;11.30;;;;;;;-2.13;64.35;101353.00;5060120;28;20021;-61
2022/03/01 05:39:25;;;;;;;31.52;12.45;;;;;;;-2.09;64.09;101356.59;5060968;28;20025;-61
2022/03/01 05:41:50;;;;;;;27.63;11.88;;;;;;;-2.02;64.79;101348.56;5062499;28;20074;-61
2022/03/01 05:44:16;;;;;;;26.25;10.55;;;;;;;-1.95;63.29;101344.69;5061880;28;20020;-61
2022/03/01 05:46:41;;;;;;;25.52;10.05;;;;;;;-2.03;62.52;101321.41;5061757;28;20216;-61
2022/03/01 05:49:07;;;;;;;28.75;11.13;;;;;;;-1.78;62.22;101348.16;5061599;28;20024;-61
2022/03/01 05:51:33;;;;;;;25.85;9.82;;;;;;;-1.79;60.09;101348.97;5061013;28;20021;-62
2022/03/01 05:53:58;;;;;;;22.27;9.30;;;;;;;-1.72;60.69;101348.53;5061789;28;20375;-61
2022/03/01 05:56:24;;;;;;;20.90;9.60;;;;;;;-1.69;61.78;101342.75;5062587;28;20017;-61
2022/03/01 05:58:49;;;;;;;21.27;9.88;;;;;;;-1.58;60.31;101342.53;5061975;28;20332;-62
2022/03/01 06:01:15;;;;;;;22.75;9.90;;;;;;;-1.50;61.24;101340.41;5061519;28;20021;-61
2022/03/01 06:03:40;;;;;;;21.23;9.90;;;;;;;-1.47;59.27;101332.97;5061946;28;20306;-61
2022/03/01 06:06:06;;;;;;;30.42;11.00;;;;;;;-1.39;59.03;101343.53;5043867;28;20044;-60
2022/03/01 06:08:32;;;;;;;33.83;12.07;;;;;;;-1.30;59.97;101344.00;5060729;28;20029;-61
2022/03/01 06:10:57;;;;;;;25.67;11.65;;;;;;;-1.25;59.94;101337.50;5062134;28;20021;-61
2022/03/01 06:13:23;;;;;;;22.83;11.30;;;;;;;-1.15;60.20;101340.56;5061773;28;20028;-61
2022/03/01 06:15:48;;;;;;;26.65;11.30;;;;;;;-1.15;58.68;101327.84;5060207;28;20199;-61
2022/03/01 06:18:15;;;;;;;25.73;11.00;;;;;;;-1.09;59.53;101345.97;5062138;28;20033;-60
2022/03/01 06:20:40;;;;;;;26.50;9.88;;;;;;;-0.98;58.28;101347.41;5061883;28;20033;-61
2022/03/01 06:23:06;;;;;;;28.55;11.18;;;;;;;-0.91;57.61;101344.38;5061408;28;20044;-61
2022/03/01 06:25:32;;;;;;;26.92;10.82;;;;;;;-0.83;59.20;101339.69;5044506;28;20029;-62
2022/03/01 06:27:58;;;;;;;25.75;10.88;;;;;;;-0.80;59.67;101338.97;5061980;28;20041;-61
2022/03/01 06:30:23;;;;;;;24.83;11.20;;;;;;;-0.80;58.37;101328.78;5062222;28;20020;-62
2022/03/01 06:32:49;;;;;;;28.38;10.85;;;;;;;-0.63;57.41;101343.25;5061906;28;20059;-60
2022/03/01 06:35:14;;;;;;;25.17;9.50;;;;;;;-0.72;55.96;101336.03;5062523;28;20017;-62
2022/03/01 06:37:40;;;;;;;25.90;12.02;;;;;;;-0.57;56.58;101342.69;5064583;28;20043;-61
2022/03/01 06:40:06;;;;;;;25.80;9.57;;;;;;;-0.42;58.24;101350.22;5064400;28;20021;-61
2022/03/01 06:42:33;;;;;;;21.33;8.98;;;;;;;-0.34;56.50;101356.59;5065654;28;20060;-62
2022/03/01 06:44:58;;;;;;;32.08;13.63;;;;;;;-0.35;57.23;101349.75;5064621;28;20033;-61
2022/03/01 06:47:24;;;;;;;19.20;9.05;;;;;;;-0.25;54.61;101353.63;5065179;28;20039;-61
2022/03/01 06:49:49;;;;;;;20.70;8.55;;;;;;;-0.10;54.86;101354.38;5064033;28;20032;-61
2022/03/01 06:52:15;;;;;;;23.98;8.95;;;;;;;0.44;54.37;101358.59;5063368;28;20021;-62
2022/03/01 06:54:40;;;;;;;24.92;10.77;;;;;;;1.43;51.12;101345.19;5062381;28;20092;-60
2022/03/01 06:57:06;;;;;;;32.47;9.93;;;;;;;2.17;50.47;101341.41;5055589;28;20036;-61
2022/03/01 06:59:32;;;;;;;49.88;10.80;;;;;;;3.06;48.55;101335.34;5064833;28;20067;-61
2022/03/01 07:01:57;;;;;;;72.53;12.63;;;;;;;3.79;46.33;101341.25;5064845;28;20040;-61
2022/03/01 07:04:23;;;;;;;37.50;9.88;;;;;;;4.51;43.59;101337.56;5064879;28;20207;-62
2022/03/01 07:06:48;;;;;;;20.08;8.32;;;;;;;5.57;42.90;101336.22;5063839;28;20021;-61
2022/03/01 07:09:14;;;;;;;21.88;8.38;;;;;;;6.19;41.33;101333.50;5047728;28;20029;-60
2022/03/01 07:11:40;;;;;;;20.95;7.45;;;;;;;6.27;39.85;101331.97;5063826;28;20053;-62
2022/03/01 07:14:05;;;;;;;17.42;7.63;;;;;;;6.48;40.06;101333.28;5064776;28;20306;-62
2022/03/01 07:16:31;;;;;;;18.20;8.10;;;;;;;6.49;40.21;101329.88;5063804;28;20033;-61
2022/03/01 07:18:56;;;;;;;25.20;9.18;;;;;;;6.72;40.18;101330.38;5064500;28;20033;-61
2022/03/01 07:21:22;;;;;;;19.90;8.38;;;;;;;7.11;38.96;101334.56;5064690;28;20041;-63
2022/03/01 07:23:48;;;;;;;17.35;9.05;;;;;;;7.09;37.89;101328.53;5063823;28;20021;-62
2022/03/01 07:26:13;;;;;;;19.50;8.07;;;;;;;7.12;37.64;101327.72;5065221;28;20039;-61
2022/03/01 07:28:39;;;;;;;18.92;8.30;;;;;;;7.59;37.26;101322.59;5064997;28;20032;-62
2022/03/01 07:31:06;;;;;;;17.25;8.27;;;;;;;7.82;36.44;101335.00;5064887;28;20025;-61
2022/03/01 07:33:31;;;;;;;17.55;8.35;;;;;;;7.99;36.74;101325.81;5063668;28;20025;-61
2022/03/01 07:35:57;;;;;;;21.77;8.15;;;;;;;7.99;35.93;101323.25;5063985;28;20056;-63
2022/03/01 07:38:22;;;;;;;27.70;7.97;;;;;;;8.49;35.02;101327.44;5064551;28;20029;-61
2022/03/01 07:40:48;;;;;;;19.13;7.38;;;;;;;8.36;35.67;101328.09;5063255;28;20063;-60
2022/03/01 07:43:14;;;;;;;20.23;7.55;;;;;;;8.43;36.13;101322.16;5063311;28;20013;-61
2022/03/01 07:45:39;;;;;;;20.38;7.65;;;;;;;8.58;36.49;101334.44;5063525;28;20351;-63
2022/03/01 07:48:05;;;;;;;19.80;7.20;;;;;;;8.54;35.79;101323.22;5063459;28;20044;-62
2022/03/01 07:50:31;;;;;;;20.10;7.57;;;;;;;8.68;35.03;101320.84;5064532;28;20727;-61
2022/03/01 07:52:57;;;;;;;13.55;6.60;;;;;;;8.76;34.44;101319.19;5064420;28;20202;-61
2022/03/01 07:55:23;;;;;;;19.25;6.65;;;;;;;8.72;33.26;101316.56;5064606;28;20061;-63
2022/03/01 07:57:49;;;;;;;17.80;6.53;;;;;;;8.45;32.17;101320.50;5063201;28;20037;-62
2022/03/01 08:00:15;;;;;;;18.40;6.85;;;;;;;8.56;35.07;101312.91;5064330;28;20063;-60
2022/03/01 08:02:42;;;;;;;12.52;5.63;;;;;;;8.45;34.24;101312.75;5063081;28;20029;-60
2022/03/01 08:05:09;;;;;;;15.80;5.40;;;;;;;8.58;33.29;101264.72;5064105;28;20048;-60
2022/03/01 08:07:35;;;;;;;10.93;5.30;;;;;;;9.03;32.51;101319.50;5060882;28;20029;-61
2022/03/01 08:10:01;;;;;;;12.45;5.40;;;;;;;8.72;33.29;101316.56;5070976;28;20317;-61
2022/03/01 08:12:26;;;;;;;15.48;6.72;;;;;;;8.27;33.03;101323.66;5057752;28;20045;-61
2022/03/01 08:14:52;;;;;;;20.27;7.25;;;;;;;8.39;34.01;101308.34;5064231;28;20025;-61
2022/03/01 08:17:19;;;;;;;22.63;8.30;;;;;;;8.67;34.25;101318.22;5060387;28;20048;-60
2022/03/01 08:19:46;;;;;;;16.10;6.75;;;;;;;8.78;33.58;101317.50;5050570;28;20066;-60
2022/03/01 08:22:12;;;;;;;16.58;6.88;;;;;;;8.73;32.41;101316.56;5063272;28;20064;-61
2022/03/01 08:24:37;;;;;;;20.90;7.28;;;;;;;8.88;34.00;101317.59;5064330;28;20116;-60
2022/03/01 08:27:03;;;;;;;18.05;7.00;;;;;;;9.14;32.97;101320.50;5063969;28;20036;-61
2022/03/01 08:29:29;;;;;;;11.85;6.63;;;;;;;9.38;31.70;101322.47;5064018;28;20144;-60
2022/03/01 08:31:54;;;;;;;16.05;6.05;;;;;;;9.46;32.07;101312.19;5063666;28;20028;-61
2022/03/01 08:34:20;;;;;;;19.55;6.43;;;;;;;9.48;31.70;101316.53;5063479;28;20107;-60
2022/03/01 08:36:45;;;;;;;18.67;6.22;;;;;;;9.92;31.96;101312.63;5063248;28;20063;-60
2022/03/01 08:39:11;;;;;;;18.20;5.95;;;;;;;9.99;30.03;101313.50;5063736;28;20094;-61
2022/03/01 08:41:36;;;;;;;20.80;8.32;;;;;;;9.95;31.54;101319.53;5063645;28;20025;-60
2022/03/01 08:44:03;;;;;;;16.70;7.35;;;;;;;10.29;31.99;101306.81;5063540;28;20032;-61
2022/03/01 08:46:28;;;;;;;19.92;8.20;;;;;;;10.57;29.98;101305.25;5063876;28;20040;-60
2022/03/01 08:48:55;;;;;;;18.27;9.73;;;;;;;10.51;31.10;101298.31;5063593;28;20032;-61
2022/03/01 08:51:22;;;;;;;19.45;9.65;;;;;;;10.77;31.00;101307.94;5063474;28;20302;-61
2022/03/01 08:53:48;;;;;;;18.73;6.45;;;;;;;11.15;30.03;101314.13;5063375;28;20105;-60
2022/03/01 08:56:17;;;;;;;15.23;7.07;;;;;;;11.23;30.24;101308.09;5062821;28;20317;-60
2022/03/01 08:58:47;;;;;;;24.00;6.68;;;;;;;11.31;27.82;101268.34;5063055;28;20037;-60
2022/03/01 09:01:14;;;;;;;16.42;6.75;;;;;;;11.82;29.20;101315.94;5063055;28;20032;-60
2022/03/01 09:03:40;;;;;;;19.77;7.60;;;;;;;12.03;29.08;101301.25;5063318;28;20052;-60
2022/03/01 09:06:06;;;;;;;24.20;6.85;;;;;;;12.20;29.48;101304.69;5062897;28;20273;-60
2022/03/01 09:08:34;;;;;;;14.98;6.60;;;;;;;11.87;28.19;101311.63;5062868;28;20056;-61
2022/03/01 09:11:00;;;;;;;18.05;5.97;;;;;;;11.77;27.23;101303.81;5063347;28;20024;-61
2022/03/01 09:13:26;;;;;;;13.70;6.15;;;;;;;12.22;26.82;101300.34;5063018;28;20116;-59
2022/03/01 09:15:52;;;;;;;15.15;6.43;;;;;;;11.93;28.83;101297.78;5062635;28;20078;-60
2022/03/01 09:18:17;;;;;;;16.17;6.68;;;;;;;12.52;27.74;101293.34;5062529;28;20028;-60
2022/03/01 09:20:43;;;;;;;14.48;6.13;;;;;;;12.25;26.57;101257.91;5062441;28;20033;-60
2022/03/01 09:23:08;;;;;;;17.65;6.47;;;;;;;12.86;27.72;101287.16;5062739;28;20029;-61
2022/03/01 09:25:34;;;;;;;15.50;5.53;;;;;;;12.84;26.79;101278.47;5062601;28;20066;-60
2022/03/01 09:27:59;;;;;;;16.20;6.65;;;;;;;13.05;26.32;101280.09;5062768;28;20024;-60
2022/03/01 09:30:25;;;;;;;17.48;5.80;;;;;;;12.86;26.56;101275.00;5061586;28;20039;-60
2022/03/01 09:32:50;;;;;;;11.20;5.57;;;;;;;13.00;26.01;101274.03;5062176;28;20336;-60
2022/03/01 09:35:17;;;;;;;19.27;5.82;;;;;;;12.83;26.48;101271.56;5062621;28;20363;-60
2022/03/01 09:37:44;;;;;;;29.00;15.60;;;;;;;12.68;26.57;101273.34;5062748;28;20040;-62
2022/03/01 09:40:11;;;;;;;11.23;5.30;;;;;;;12.07;27.48;101270.09;5062671;28;20037;-61
2022/03/01 09:42:37;;;;;;;8.48;4.90;;;;;;;11.72;28.61;101277.88;5062441;28;20045;-61
2022/03/01 09:45:03;;;;;;;10.20;5.53;;;;;;;10.80;27.56;101270.81;5062574;28;20033;-60
2022/03/01 09:47:30;;;;;;;10.05;5.22;;;;;;;10.22;29.00;101279.13;5062425;28;20079;-61
2022/03/01 09:49:55;;;;;;;9.35;5.13;;;;;;;10.16;29.11;101277.38;5062616;28;20253;-60
2022/03/01 09:52:21;;;;;;;8.90;4.57;;;;;;;9.60;29.01;101268.38;5062231;28;20044;-61
2022/03/01 09:54:49;;;;;;;15.15;7.57;;;;;;;9.11;30.13;101219.69;5060964;28;20225;-60
2022/03/01 09:57:16;;;;;;;14.68;7.15;;;;;;;9.29;28.40;101273.25;5061835;28;20375;-60
2022/03/01 09:59:42;;;;;;;13.18;4.60;;;;;;;8.92;29.69;101267.69;5062208;28;20032;-59
2022/03/01 10:02:08;;;;;;;12.80;4.32;;;;;;;8.76;29.40;101269.25;5062288;28;20036;-59
2022/03/01 10:04:57;;;;;;;6.90;3.47;;;;;;;8.64;29.75;101257.06;5062493;28;20049;-59
2022/03/01 10:07:27;;;;;;;8.13;3.50;;;;;;;7.86;28.13;101203.53;5060992;28;20044;-60
2022/03/01 10:09:53;;;;;;;6.88;3.65;;;;;;;8.07;29.32;101253.72;5061197;28;20056;-61
2022/03/01 10:12:26;;;;;;;13.20;4.43;;;;;;;7.87;28.35;101250.84;5066431;28;20261;-60
2022/03/01 10:14:59;;;;;;;9.00;4.50;;;;;;;7.42;28.19;101257.84;5066304;28;20326;-59
2022/03/01 10:17:39;;;;;;;15.50;4.97;;;;;;;7.21;31.45;101193.91;5066475;28;20074;-60
2022/03/01 10:20:16;;;;;;;11.93;5.20;;;;;;;7.00;31.82;101187.56;5066204;28;20025;-60
2022/03/01 10:22:46;;;;;;;16.17;6.00;;;;;;;7.38;31.18;101261.19;5065361;28;20330;-59
2022/03/01 10:25:13;;;;;;;19.70;6.28;;;;;;;7.35;31.79;101248.28;5065718;28;20039;-59
2022/03/01 10:27:39;;;;;;;21.13;6.13;;;;;;;7.35;30.04;101241.41;5066163;28;20071;-60
2022/03/01 10:30:07;;;;;;;15.32;5.68;;;;;;;7.27;29.85;101248.16;5066037;28;20032;-59
2022/03/01 10:32:33;;;;;;;15.73;5.85;;;;;;;7.35;30.01;101240.53;5065934;28;20096;-61
2022/03/01 10:35:01;;;;;;;20.38;5.88;;;;;;;7.46;31.21;101238.16;5065886;28;20029;-60
2022/03/01 10:37:30;;;;;;;14.57;5.13;;;;;;;7.40;31.30;101229.47;5065422;28;20033;-60
2022/03/01 10:40:20;;;;;;;9.60;4.70;;;;;;;7.32;30.82;101228.47;5054879;28;20039;-60
2022/03/01 10:42:59;;;;;;;14.77;4.40;;;;;;;7.29;30.24;101219.84;5062224;28;20047;-61
2022/03/01 10:45:45;;;;;;;9.18;4.50;;;;;;;6.74;31.43;101169.94;5049560;28;20027;-61
2022/03/01 10:48:22;;;;;;;14.95;4.45;;;;;;;7.07;30.62;101234.91;5064802;28;20055;-61
2022/03/01 10:51:01;;;;;;;10.25;5.07;;;;;;;7.02;29.23;101208.19;5065857;28;20020;-60
2022/03/01 10:53:35;;;;;;;12.27;4.60;;;;;;;6.40;28.76;101168.44;5065213;28;20029;-59
2022/03/01 10:56:06;;;;;;;12.88;6.30;;;;;;;6.57;29.93;101161.91;5065023;28;20024;-60
2022/03/01 10:58:35;;;;;;;16.70;5.70;;;;;;;7.02;28.73;101226.22;5080602;28;20043;-59
2022/03/01 11:01:01;;;;;;;12.93;4.55;;;;;;;6.78;27.72;101219.78;5065384;28;20028;-59
2022/03/01 11:03:26;;;;;;;12.52;5.07;;;;;;;6.86;27.51;101219.94;5064359;28;20218;-59
2022/03/01 11:05:54;;;;;;;12.32;4.85;;;;;;;6.67;29.39;101151.75;5064933;28;20049;-60
2022/03/01 11:08:22;;;;;;;11.23;4.78;;;;;;;6.60;28.52;101148.22;5063818;28;20330;-60
2022/03/01 11:10:50;;;;;;;15.20;5.40;;;;;;;6.68;27.47;101205.00;5064349;28;20029;-60
2022/03/01 11:13:19;;;;;;;12.38;4.60;;;;;;;6.85;27.77;101208.75;5065334;28;20020;-59
2022/03/01 11:15:53;;;;;;;12.70;5.05;;;;;;;6.80;26.92;101209.50;5065267;28;20083;-61